Time;durP1;ratioP1;P1;durP2;ratioP2;P2;SDS_P1;SDS_P2;PMS_P1;PMS_P2;Temp;Humidity;BMP_temperature;BMP_pressure;BME280_temperature;BME280_humidity;BME280_pressure;Samples;Min_cycle;Max_cycle;Signal;HPM_P1;HPM_P2
2022/12/21 00:01:30;;;;;;;16.77;7.40;;;;;;;7.51;100.00;100689.72;6225736;28;20049;-74
2022/12/21 00:04:32;;;;;;;16.05;6.90;;;;;;;7.51;100.00;100680.09;6226232;28;20056;-73
2022/12/21 00:07:33;;;;;;;13.88;7.13;;;;;;;7.50;100.00;100675.78;6237845;28;20049;-73
2022/12/21 00:10:35;;;;;;;13.05;6.72;;;;;;;7.51;100.00;100679.25;6241494;28;20049;-73
2022/12/21 00:13:36;;;;;;;16.88;8.45;;;;;;;7.48;100.00;100675.00;6244572;28;20558;-73
2022/12/21 00:16:40;;;;;;;27.60;8.57;;;;;;;7.70;100.00;100676.72;6249817;28;20409;-73
2022/12/21 00:19:43;;;;;;;24.52;8.07;;;;;;;7.71;100.00;100683.63;6249655;28;20433;-73
2022/12/21 00:22:45;;;;;;;23.30;8.98;;;;;;;7.71;100.00;100674.03;6250131;28;20068;-73
2022/12/21 00:25:46;;;;;;;19.40;7.70;;;;;;;7.77;100.00;100675.56;6249559;28;20048;-73
2022/12/21 00:28:49;;;;;;;12.60;7.07;;;;;;;7.76;100.00;100668.59;6249927;28;20060;-73
2022/12/21 00:31:53;;;;;;;15.30;7.75;;;;;;;7.76;100.00;100668.59;6249666;28;20072;-73
2022/12/21 00:34:54;;;;;;;16.70;7.55;;;;;;;7.78;100.00;100665.00;6231041;28;20050;-73
2022/12/21 00:37:56;;;;;;;14.65;8.40;;;;;;;7.79;100.00;100666.69;6224917;28;20454;-74
2022/12/21 00:40:58;;;;;;;21.42;7.78;;;;;;;7.80;100.00;100670.16;6223950;28;20057;-73
2022/12/21 00:44:00;;;;;;;19.35;8.75;;;;;;;7.80;100.00;100673.63;6224793;28;20543;-73
2022/12/21 00:47:02;;;;;;;24.33;8.85;;;;;;;7.82;100.00;100677.03;6224620;28;20042;-73
2022/12/21 00:50:04;;;;;;;23.65;9.20;;;;;;;7.83;100.00;100683.97;6224608;28;20425;-73
2022/12/21 00:53:06;;;;;;;22.30;8.50;;;;;;;7.84;100.00;100676.97;6224619;28;20049;-73
2022/12/21 00:56:09;;;;;;;19.27;9.50;;;;;;;7.80;100.00;100688.47;6224715;28;20057;-73
2022/12/21 00:59:10;;;;;;;22.20;10.20;;;;;;;7.83;100.00;100683.97;6224417;28;20429;-73
2022/12/21 01:02:13;;;;;;;18.17;9.30;;;;;;;7.81;100.00;100692.78;6224368;28;20054;-73
2022/12/21 01:05:15;;;;;;;17.15;8.98;;;;;;;7.81;100.00;100685.81;6224308;28;20061;-73
2022/12/21 01:08:18;;;;;;;19.67;9.32;;;;;;;7.78;100.00;100691.16;6224550;28;20180;-73
2022/12/21 01:11:20;;;;;;;15.75;8.75;;;;;;;7.80;100.00;100696.31;6224387;28;20501;-73
2022/12/21 01:14:21;;;;;;;17.55;8.85;;;;;;;7.77;100.00;100691.25;6223914;28;20057;-73
2022/12/21 01:17:24;;;;;;;20.90;8.55;;;;;;;7.80;100.00;100699.78;6224318;28;20517;-73
2022/12/21 01:20:25;;;;;;;14.52;8.60;;;;;;;7.78;100.00;100693.78;6223714;28;20060;-73
2022/12/21 01:23:26;;;;;;;15.70;8.55;;;;;;;7.83;100.00;100704.91;6224183;28;20049;-74
2022/12/21 01:26:29;;;;;;;16.20;8.68;;;;;;;7.87;100.00;100698.63;6223740;28;20501;-73
2022/12/21 01:29:30;;;;;;;19.63;8.55;;;;;;;7.87;100.00;100700.41;6223723;28;20136;-74
2022/12/21 01:32:33;;;;;;;18.38;8.85;;;;;;;7.88;100.00;100710.78;6223781;28;20061;-73
2022/12/21 01:35:34;;;;;;;19.25;9.82;;;;;;;7.85;100.00;100710.06;6223707;28;20046;-73
2022/12/21 01:38:38;;;;;;;24.65;8.88;;;;;;;7.79;100.00;100712.94;6223709;28;20061;-73
2022/12/21 01:41:39;;;;;;;21.25;9.73;;;;;;;7.81;100.00;100705.88;6223569;28;20049;-73
2022/12/21 01:44:59;;;;;;;19.80;10.52;;;;;;;7.84;100.00;100710.97;6223417;28;20498;-73
2022/12/21 01:48:06;;;;;;;23.88;10.23;;;;;;;7.83;100.00;100711.91;6223825;28;20049;-73
2022/12/21 01:51:09;;;;;;;29.55;9.57;;;;;;;7.82;100.00;100710.22;6223222;28;20486;-73
2022/12/21 01:54:14;;;;;;;18.77;8.65;;;;;;;7.85;100.00;100712.66;6223539;28;20053;-73
2022/12/21 01:57:17;;;;;;;21.63;9.43;;;;;;;7.83;100.00;100717.97;6223145;28;20426;-73
2022/12/21 02:00:19;;;;;;;19.73;9.35;;;;;;;7.83;100.00;100711.91;6222860;28;20058;-73
2022/12/21 02:03:26;;;;;;;22.10;9.68;;;;;;;7.82;100.00;100713.66;6223205;28;20497;-73
2022/12/21 02:06:32;;;;;;;16.13;7.85;;;;;;;7.85;100.00;100707.44;6222774;28;20084;-73
2022/12/21 02:09:36;;;;;;;19.15;8.57;;;;;;;7.86;100.00;100703.94;6223056;28;20054;-73
2022/12/21 02:12:38;;;;;;;21.20;9.05;;;;;;;7.84;100.00;100705.75;6222693;28;20061;-73
2022/12/21 02:15:54;;;;;;;20.60;10.00;;;;;;;7.82;100.00;100705.81;6222795;28;20057;-73
2022/12/21 02:19:16;;;;;;;19.70;9.18;;;;;;;7.82;100.00;100705.81;6222687;28;20520;-73
2022/12/21 02:22:27;;;;;;;22.30;9.52;;;;;;;7.81;100.00;100708.47;6222527;28;20054;-73
2022/12/21 02:26:06;;;;;;;21.30;9.07;;;;;;;7.85;100.00;100705.66;6222896;28;20108;-73
2022/12/21 02:29:48;;;;;;;20.55;10.32;;;;;;;7.86;100.00;100717.00;6222304;28;20497;-73
2022/12/21 02:33:05;;;;;;;23.83;10.23;;;;;;;7.92;100.00;100715.91;6222253;28;20046;-73
2022/12/21 02:36:23;;;;;;;17.55;8.65;;;;;;;7.91;100.00;100709.81;6222452;28;20045;-73
2022/12/21 02:39:32;;;;;;;22.75;10.48;;;;;;;7.86;100.00;100715.25;6222138;28;20077;-73
2022/12/21 02:46:09;;;;;;;22.33;8.77;;;;;;;7.89;100.00;100722.09;6217683;28;20429;-73
2022/12/21 02:49:16;;;;;;;21.08;10.48;;;;;;;7.87;100.00;100726.56;6222017;28;20054;-73
2022/12/21 02:52:27;;;;;;;20.85;10.02;;;;;;;7.85;100.00;100723.13;6222408;28;20064;-73
2022/12/21 02:55:28;;;;;;;20.33;9.55;;;;;;;7.84;100.00;100724.91;6221778;28;20507;-73
2022/12/21 02:58:30;;;;;;;22.83;10.57;;;;;;;7.84;100.00;100721.44;6222163;28;20049;-72
2022/12/21 03:02:05;;;;;;;21.52;9.43;;;;;;;7.85;100.00;100728.38;6222814;28;20072;-73
2022/12/21 03:05:34;;;;;;;19.95;9.00;;;;;;;7.85;100.00;100716.13;6230148;28;20064;-73
2022/12/21 03:08:43;;;;;;;21.50;9.33;;;;;;;7.87;100.00;100721.31;6230341;28;20057;-73
2022/12/21 03:11:54;;;;;;;19.13;9.10;;;;;;;7.86;100.00;100717.00;6222438;28;20301;-73
2022/12/21 03:15:06;;;;;;;19.00;9.00;;;;;;;7.85;100.00;100720.53;6230175;28;20145;-73
2022/12/21 03:18:17;;;;;;;18.55;8.70;;;;;;;7.86;100.00;100728.31;6230172;28;20054;-73
2022/12/21 03:21:26;;;;;;;21.25;8.80;;;;;;;7.89;100.00;100730.78;6229886;28;20053;-73
2022/12/21 03:24:35;;;;;;;21.63;8.90;;;;;;;7.89;100.00;100724.72;6229981;28;20056;-73
2022/12/21 03:27:42;;;;;;;16.87;7.90;;;;;;;7.91;100.00;100720.28;6229805;28;20116;-73
2022/12/21 03:30:50;;;;;;;20.00;8.93;;;;;;;7.91;100.00;100717.66;6229484;28;20303;-73
2022/12/21 03:33:57;;;;;;;18.13;8.52;;;;;;;7.93;100.00;100722.81;6229007;28;20049;-73
2022/12/21 03:37:06;;;;;;;19.23;8.82;;;;;;;7.94;100.00;100719.28;6229689;28;20050;-72
2022/12/21 03:40:11;;;;;;;16.60;7.40;;;;;;;7.95;100.00;100710.50;6229894;28;20410;-73
2022/12/21 03:43:20;;;;;;;16.20;7.75;;;;;;;7.94;100.00;100716.66;6229709;28;20061;-73
2022/12/21 03:46:25;;;;;;;14.95;7.10;;;;;;;7.91;100.00;100712.44;6229750;28;20046;-73
2022/12/21 03:49:31;;;;;;;16.25;7.63;;;;;;;7.88;100.00;100717.78;6229735;28;20505;-73
2022/12/21 03:52:40;;;;;;;14.75;7.03;;;;;;;7.76;100.00;100716.53;6229765;28;20521;-73
2022/12/21 03:55:47;;;;;;;18.08;7.82;;;;;;;7.79;100.00;100712.94;6229652;28;20128;-73
2022/12/21 03:58:48;;;;;;;16.13;8.20;;;;;;;7.79;100.00;100707.72;6229680;28;20052;-73
2022/12/21 04:01:59;;;;;;;17.77;7.93;;;;;;;7.81;100.00;100706.75;6229405;28;20076;-73
2022/12/21 04:05:05;;;;;;;13.68;7.43;;;;;;;7.78;100.00;100709.47;6229681;28;20045;-73
2022/12/21 04:08:09;;;;;;;18.23;8.32;;;;;;;7.81;100.00;100711.97;6229493;28;20046;-73
2022/12/21 04:12:36;;;;;;;18.88;8.18;;;;;;;7.81;100.00;100711.09;6229480;28;20498;-73
2022/12/21 04:14:32;;;;;;;17.60;7.85;;;;;;;7.77;100.00;100710.41;6225488;28;20056;-73
2022/12/21 04:17:33;;;;;;;19.77;8.00;;;;;;;7.83;100.00;100711.91;6225844;28;20093;-73
2022/12/21 04:20:34;;;;;;;21.35;9.23;;;;;;;7.87;100.00;100705.63;6225399;28;20053;-73
2022/12/21 04:30:26;;;;;;;17.90;7.88;;;;;;;7.78;100.00;100714.72;6224690;28;20046;-73
2022/12/21 04:33:29;;;;;;;20.15;8.48;;;;;;;7.78;100.00;100712.09;6225474;28;20501;-73
2022/12/21 04:39:51;;;;;;;18.58;8.30;;;;;;;7.79;100.00;100710.31;6224862;28;20146;-73
2022/12/21 04:42:52;;;;;;;14.10;6.78;;;;;;;7.80;100.00;100712.03;6225171;28;20061;-73
2022/12/21 04:46:00;;;;;;;17.00;6.97;;;;;;;7.76;100.00;100718.28;6224791;28;20050;-73
2022/12/21 04:49:02;;;;;;;18.15;7.85;;;;;;;7.77;100.00;100713.03;6224964;28;20049;-73
2022/12/21 04:52:03;;;;;;;17.77;6.78;;;;;;;7.82;100.00;100705.81;6224713;28;20409;-73
2022/12/21 04:55:07;;;;;;;16.80;7.03;;;;;;;7.79;100.00;100699.88;6224908;28;20049;-73
2022/12/21 04:58:08;;;;;;;12.38;5.65;;;;;;;7.77;100.00;100691.25;6224553;28;20497;-73
2022/12/21 05:01:11;;;;;;;10.75;4.80;;;;;;;7.67;100.00;100697.75;6224581;28;20057;-73
2022/12/21 05:04:12;;;;;;;15.23;6.68;;;;;;;7.67;100.00;100700.38;6224269;28;20057;-73
2022/12/21 05:07:13;;;;;;;21.35;6.40;;;;;;;7.68;100.00;100694.25;6231615;28;20512;-73
2022/12/21 05:10:16;;;;;;;10.80;5.50;;;;;;;7.65;100.00;100696.97;6235634;28;20041;-73
2022/12/21 05:13:18;;;;;;;16.63;4.72;;;;;;;7.49;100.00;100694.13;6233507;28;20056;-73
2022/12/21 05:16:21;;;;;;;9.23;4.57;;;;;;;7.47;100.00;100690.75;6230952;28;20056;-73
2022/12/21 05:19:23;;;;;;;8.70;3.72;;;;;;;7.48;100.00;100690.69;6230663;28;20046;-73
2022/12/21 05:22:25;;;;;;;7.88;3.45;;;;;;;7.39;100.00;100683.22;6242744;28;20086;-74
2022/12/21 05:25:27;;;;;;;4.30;2.13;;;;;;;7.39;100.00;100698.91;6248138;28;20056;-75
2022/12/21 05:28:29;;;;;;;15.43;6.78;;;;;;;7.45;100.00;100701.28;6248259;28;20107;-73
2022/12/21 05:31:31;;;;;;;16.08;7.53;;;;;;;7.54;100.00;100697.41;6248190;28;20054;-72
2022/12/21 05:34:32;;;;;;;20.33;8.52;;;;;;;7.55;100.00;100699.97;6237505;28;20398;-72
2022/12/21 05:37:34;;;;;;;19.63;8.30;;;;;;;7.58;100.00;100693.75;6234153;28;20042;-72
2022/12/21 05:40:36;;;;;;;16.33;6.50;;;;;;;7.55;100.00;100689.53;6234052;28;20045;-72
2022/12/21 05:43:38;;;;;;;16.02;7.20;;;;;;;7.53;100.00;100693.94;6234627;28;20141;-72
2022/12/21 05:46:40;;;;;;;17.30;7.60;;;;;;;7.59;100.00;100688.47;6235269;28;20111;-72
2022/12/21 05:49:41;;;;;;;23.40;7.47;;;;;;;7.49;100.00;100689.75;6233225;28;20050;-72
2022/12/21 05:52:42;;;;;;;17.40;7.00;;;;;;;7.53;100.00;100686.09;6223153;28;20430;-72
2022/12/21 05:55:46;;;;;;;21.83;8.02;;;;;;;7.59;100.00;100688.47;6223521;28;20054;-72
2022/12/21 05:58:47;;;;;;;18.27;6.95;;;;;;;7.57;100.00;100690.28;6223197;28;20513;-72
2022/12/21 06:01:49;;;;;;;15.95;7.22;;;;;;;7.52;100.00;100687.03;6223076;28;20050;-72
2022/12/21 06:04:50;;;;;;;13.20;5.35;;;;;;;7.57;100.00;100689.44;6223018;28;20046;-75
2022/12/21 06:07:51;;;;;;;18.50;7.78;;;;;;;7.56;100.00;100690.38;6223204;28;20046;-73
2022/12/21 06:10:54;;;;;;;22.90;8.07;;;;;;;7.47;100.00;100698.59;6222888;28;20065;-73
2022/12/21 06:13:55;;;;;;;17.70;7.45;;;;;;;7.49;100.00;100707.22;6222989;28;20506;-72
2022/12/21 06:16:57;;;;;;;22.40;7.30;;;;;;;7.53;100.00;100706.19;6222769;28;20510;-72
2022/12/21 06:19:58;;;;;;;15.50;6.43;;;;;;;7.51;100.00;100711.47;6223023;28;20429;-72
2022/12/21 06:22:59;;;;;;;18.13;7.72;;;;;;;7.53;100.00;100700.94;6233779;28;20049;-72
2022/12/21 06:26:04;;;;;;;18.85;8.30;;;;;;;7.58;100.00;100696.38;6231693;28;20054;-72
2022/12/21 06:29:05;;;;;;;20.02;8.15;;;;;;;7.63;100.00;100697.06;6230071;28;20050;-73
2022/12/21 06:32:06;;;;;;;19.70;8.10;;;;;;;7.64;100.00;100709.22;6233564;28;20485;-72
2022/12/21 06:35:08;;;;;;;18.50;8.05;;;;;;;7.62;100.00;100714.50;6232699;28;20053;-73
2022/12/21 06:38:09;;;;;;;21.83;9.25;;;;;;;7.66;100.00;100711.75;6232456;28;20053;-72
2022/12/21 06:41:14;;;;;;;23.33;8.52;;;;;;;7.66;100.00;100712.59;6224225;28;20141;-73
2022/12/21 06:44:15;;;;;;;18.85;6.88;;;;;;;7.59;100.00;100705.94;6221889;28;20524;-73
2022/12/21 06:47:17;;;;;;;21.52;6.82;;;;;;;7.54;100.00;100702.63;6222498;28;20041;-72
2022/12/21 06:50:18;;;;;;;20.40;7.82;;;;;;;7.56;100.00;100704.28;6214338;28;20054;-73
2022/12/21 06:53:19;;;;;;;16.40;6.53;;;;;;;7.50;100.00;100706.31;6221946;28;20042;-73
2022/12/21 06:56:24;;;;;;;19.13;6.90;;;;;;;7.48;100.00;100710.75;6222233;28;20049;-73
2022/12/21 06:59:26;;;;;;;15.65;6.50;;;;;;;7.48;100.00;100714.22;6221921;28;20046;-72
2022/12/21 07:02:27;;;;;;;19.48;7.20;;;;;;;7.45;100.00;100709.13;6222055;28;20049;-73
2022/12/21 07:05:29;;;;;;;16.77;7.07;;;;;;;7.39;100.00;100717.19;6222182;28;20054;-73
2022/12/21 07:08:30;;;;;;;19.10;6.35;;;;;;;7.29;100.00;100721.09;6222084;28;20136;-73
2022/12/21 07:11:33;;;;;;;15.30;6.43;;;;;;;7.30;100.00;100714.97;6222101;28;20050;-72
2022/12/21 07:14:35;;;;;;;13.50;4.80;;;;;;;7.29;100.00;100727.19;6222024;28;20402;-73
2022/12/21 07:17:36;;;;;;;20.48;8.15;;;;;;;7.28;100.00;100735.94;6221695;28;20474;-72
2022/12/21 07:20:37;;;;;;;17.48;7.35;;;;;;;7.35;100.00;100747.00;6221744;28;20053;-73
2022/12/21 07:23:40;;;;;;;15.35;5.90;;;;;;;7.37;100.00;100738.19;6221950;28;20050;-73
2022/12/21 07:26:43;;;;;;;21.17;7.35;;;;;;;7.43;100.00;100731.84;6221716;28;20569;-73
2022/12/21 07:29:44;;;;;;;25.60;4.95;;;;;;;7.46;100.00;100736.97;6221834;28;20426;-72
2022/12/21 07:32:46;;;;;;;12.38;5.25;;;;;;;7.40;100.00;100736.34;6218623;28;20435;-72
2022/12/21 07:35:47;;;;;;;16.17;6.63;;;;;;;7.38;100.00;100732.03;6221537;28;20498;-73
2022/12/21 07:38:48;;;;;;;14.68;6.68;;;;;;;7.33;100.00;100734.00;6221744;28;20046;-72
2022/12/21 07:41:51;;;;;;;21.48;4.85;;;;;;;7.32;100.00;100732.31;6221564;28;20061;-73
2022/12/21 07:44:52;;;;;;;9.65;5.50;;;;;;;7.33;100.00;100738.38;6235849;28;20429;-72
2022/12/21 07:47:55;;;;;;;16.40;6.75;;;;;;;7.41;100.00;100738.94;6222101;28;20053;-73
2022/12/21 07:50:57;;;;;;;16.20;5.85;;;;;;;7.39;100.00;100735.50;6226245;28;20049;-72
2022/12/21 07:53:58;;;;;;;15.63;4.97;;;;;;;7.38;100.00;100737.28;6226226;28;20057;-72
2022/12/21 07:57:01;;;;;;;18.15;7.72;;;;;;;7.35;100.00;100744.38;6218408;28;20057;-73
2022/12/21 08:00:04;;;;;;;18.55;6.95;;;;;;;7.40;100.00;100741.59;6225954;28;20075;-73
2022/12/21 08:03:05;;;;;;;20.00;7.03;;;;;;;7.38;100.00;100752.97;6225890;28;20042;-72
2022/12/21 08:06:07;;;;;;;28.23;7.97;;;;;;;7.36;100.00;100756.56;6225713;28;20062;-73
2022/12/21 08:09:08;;;;;;;18.95;7.63;;;;;;;7.36;100.00;100760.03;6225896;28;20417;-73
2022/12/21 08:12:11;;;;;;;23.30;9.50;;;;;;;7.40;100.00;100768.56;6225647;28;20061;-72
2022/12/21 08:15:12;;;;;;;19.90;7.72;;;;;;;7.44;100.00;100772.78;6225767;28;20061;-73
2022/12/21 08:18:14;;;;;;;18.23;8.20;;;;;;;7.36;100.00;100775.72;6225526;28;20119;-73
2022/12/21 08:21:16;;;;;;;13.30;6.13;;;;;;;7.34;100.00;100780.13;6225586;28;20049;-73
2022/12/21 08:24:17;;;;;;;12.20;5.43;;;;;;;7.27;100.00;100788.28;6225605;28;20632;-72
2022/12/21 08:27:20;;;;;;;14.90;5.63;;;;;;;7.21;100.00;100781.53;6225670;28;20054;-73
2022/12/21 08:30:21;;;;;;;17.00;5.88;;;;;;;7.18;100.00;100765.13;6222174;28;20049;-73
2022/12/21 08:33:22;;;;;;;10.85;4.72;;;;;;;7.14;100.00;100759.16;6219508;28;20417;-73
2022/12/21 08:36:25;;;;;;;12.38;5.63;;;;;;;7.10;100.00;100761.03;6219958;28;20042;-73
2022/12/21 08:39:26;;;;;;;13.32;5.03;;;;;;;7.14;100.00;100743.47;6220685;28;20049;-72
2022/12/21 08:42:29;;;;;;;12.25;4.32;;;;;;;7.13;100.00;100749.63;6224995;28;20050;-73
2022/12/21 08:45:32;;;;;;;8.63;4.18;;;;;;;7.10;100.00;100750.59;6224773;28;20050;-72
2022/12/21 08:48:34;;;;;;;8.48;4.07;;;;;;;7.09;100.00;100748.88;6224931;28;20053;-73
2022/12/21 08:51:37;;;;;;;6.45;3.28;;;;;;;7.11;100.00;100741.81;6224677;28;20046;-73
2022/12/21 08:54:39;;;;;;;7.82;3.60;;;;;;;7.06;100.00;100742.94;6224844;28;20244;-71
2022/12/21 08:57:41;;;;;;;9.60;2.40;;;;;;;7.09;100.00;100750.66;6224539;28;20180;-73
2022/12/21 09:00:43;;;;;;;8.85;3.85;;;;;;;7.14;100.00;100740.88;6223844;28;20069;-71
2022/12/21 09:03:44;;;;;;;5.68;2.80;;;;;;;7.16;100.00;100739.03;6224337;28;20484;-73
2022/12/21 09:06:46;;;;;;;10.55;3.72;;;;;;;7.16;100.00;100731.19;6224498;28;20045;-72
2022/12/21 09:09:47;;;;;;;7.00;3.20;;;;;;;7.19;100.00;100733.69;6220141;28;20418;-72
2022/12/21 09:12:50;;;;;;;11.30;5.07;;;;;;;7.30;100.00;100725.41;6217084;28;20045;-72
2022/12/21 09:15:51;;;;;;;10.73;5.10;;;;;;;7.34;100.00;100732.22;6223860;28;20049;-71
2022/12/21 09:18:53;;;;;;;10.85;5.28;;;;;;;7.35;100.00;100726.09;6220486;28;20041;-71
2022/12/21 09:21:54;;;;;;;10.13;4.15;;;;;;;7.36;100.00;100725.19;6228160;28;20486;-71
2022/12/21 09:24:56;;;;;;;9.43;4.55;;;;;;;7.35;100.00;100723.47;6242366;28;20060;-71
2022/12/21 09:28:01;;;;;;;13.50;4.72;;;;;;;7.36;100.00;100712.97;6239868;28;20049;-72
2022/12/21 09:31:09;;;;;;;9.45;3.47;;;;;;;7.40;100.00;100726.75;6223412;28;20049;-71
2022/12/21 09:34:10;;;;;;;11.93;5.28;;;;;;;7.41;100.00;100732.84;6216546;28;20555;-71
2022/12/21 09:37:12;;;;;;;19.10;6.80;;;;;;;7.40;100.00;100736.34;6226394;28;20060;-71
2022/12/21 09:40:16;;;;;;;13.07;4.85;;;;;;;7.38;100.00;100742.50;6223505;28;20050;-71
2022/12/21 09:43:26;;;;;;;15.10;5.85;;;;;;;7.40;100.00;100731.13;6221132;28;20057;-71
2022/12/21 09:46:29;;;;;;;11.02;4.53;;;;;;;7.33;100.00;100727.91;6223326;28;20058;-71
2022/12/21 09:49:40;;;;;;;11.63;5.55;;;;;;;7.33;100.00;100726.16;6223134;28;20042;-72
2022/12/21 09:52:45;;;;;;;15.00;6.03;;;;;;;7.36;100.00;100731.28;6224942;28;20520;-71
2022/12/21 09:55:50;;;;;;;14.52;5.78;;;;;;;7.35;100.00;100734.78;6247532;28;20065;-71
2022/12/21 09:58:54;;;;;;;13.30;5.88;;;;;;;7.33;100.00;100727.91;6246306;28;20042;-71
2022/12/21 10:02:05;;;;;;;8.27;4.03;;;;;;;7.30;100.00;100721.03;6247552;28;20057;-71
2022/12/21 10:05:20;;;;;;;12.00;5.40;;;;;;;7.33;100.00;100718.31;6246918;28;20425;-71
2022/12/21 10:08:46;;;;;;;13.23;5.43;;;;;;;7.34;100.00;100720.00;6204204;28;20057;-71
2022/12/21 10:12:00;;;;;;;11.90;5.45;;;;;;;7.37;100.00;100721.66;6197602;28;20061;-71
2022/12/21 10:15:15;;;;;;;10.63;4.72;;;;;;;7.38;100.00;100718.97;6198479;28;20077;-71
2022/12/21 10:18:21;;;;;;;14.60;5.82;;;;;;;7.37;100.00;100724.28;6198665;28;20054;-71
2022/12/21 10:21:33;;;;;;;15.55;6.47;;;;;;;7.43;100.00;100731.00;6198292;28;20057;-70
2022/12/21 10:24:40;;;;;;;13.45;6.03;;;;;;;7.45;100.00;100723.94;6198119;28;20434;-70
2022/12/21 10:27:47;;;;;;;12.27;5.80;;;;;;;7.47;100.00;100717.75;6206755;28;20042;-71
2022/12/21 10:30:56;;;;;;;12.07;4.65;;;;;;;7.45;100.00;100711.75;6222271;28;20049;-71
2022/12/21 10:33:58;;;;;;;;;;;;;;;7.43;100.00;100717.94;6222877;28;20053;-70
2022/12/21 10:37:02;;;;;;;14.15;5.70;;;;;;;7.39;100.00;100711.97;6222775;28;20305;-70
2022/12/21 10:40:04;;;;;;;15.65;5.68;;;;;;;7.42;100.00;100718.84;6220374;28;20049;-71
2022/12/21 10:43:05;;;;;;;18.75;6.82;;;;;;;7.45;100.00;100724.81;6197885;28;20066;-69
2022/12/21 10:46:08;;;;;;;18.05;7.22;;;;;;;7.51;100.00;100721.94;6198142;28;20046;-70
2022/12/21 10:49:19;;;;;;;15.00;6.40;;;;;;;7.53;100.00;100714.03;6212254;28;20042;-70
2022/12/21 10:52:38;;;;;;;11.85;5.38;;;;;;;7.51;100.00;100716.72;6209514;28;20053;-70
2022/12/21 10:55:40;;;;;;;;;;;;;;;7.51;100.00;100718.47;6208577;28;20050;-71
2022/12/21 10:58:51;;;;;;;16.00;6.22;;;;;;;7.50;100.00;100709.78;6219180;28;19928;-71
2022/12/21 11:01:54;;;;;;;18.67;6.78;;;;;;;7.53;100.00;100700.94;6221519;28;20574;-71
2022/12/21 11:04:55;;;;;;;9.40;4.88;;;;;;;7.53;100.00;100682.66;6219241;28;20058;-71
2022/12/21 11:08:19;;;;;;;19.90;7.00;;;;;;;7.52;100.00;100696.63;6217976;28;20049;-71
2022/12/21 11:11:29;;;;;;;16.48;5.63;;;;;;;7.57;100.00;100692.06;6219623;28;20220;-72
2022/12/21 11:14:38;;;;;;;15.57;6.20;;;;;;;7.61;100.00;100704.09;6235119;28;20464;-71
2022/12/21 11:17:45;;;;;;;17.13;6.78;;;;;;;7.62;100.00;100700.56;6220734;28;20529;-71
2022/12/21 11:20:48;;;;;;;15.70;5.95;;;;;;;7.58;100.00;100702.44;6223190;28;20044;-71
2022/12/21 11:23:57;;;;;;;20.67;5.55;;;;;;;7.56;100.00;100706.91;6233813;28;20136;-71
2022/12/21 11:27:01;;;;;;;17.95;7.05;;;;;;;7.62;100.00;100709.25;6240048;28;20057;-71
2022/12/21 11:30:09;;;;;;;22.95;7.13;;;;;;;7.51;100.00;100698.41;6237419;28;20056;-71
2022/12/21 11:33:18;;;;;;;13.05;5.38;;;;;;;7.52;100.00;100676.56;6234603;28;20050;-71
2022/12/21 11:36:19;;;;;;;16.70;6.03;;;;;;;7.56;100.00;100679.91;6237947;28;20041;-71
2022/12/21 11:39:23;;;;;;;15.95;6.88;;;;;;;7.67;100.00;100687.28;6227775;28;20045;-71
2022/12/21 11:42:26;;;;;;;17.08;6.40;;;;;;;7.74;100.00;100689.59;6223834;28;20049;-70
2022/12/21 11:45:35;;;;;;;18.13;6.05;;;;;;;7.81;100.00;100691.06;6226339;28;20057;-72
2022/12/21 11:48:48;;;;;;;17.88;6.75;;;;;;;7.79;100.00;100692.88;6235510;23;20053;-72
2022/12/21 11:51:59;;;;;;;16.17;5.35;;;;;;;7.74;100.00;100683.53;6244832;28;20045;-71
2022/12/21 11:55:10;;;;;;;17.38;6.18;;;;;;;7.71;100.00;100688.88;6249403;28;20191;-71
2022/12/21 11:58:18;;;;;;;17.67;6.10;;;;;;;7.67;100.00;100682.91;6250538;28;20049;-72
2022/12/21 12:01:34;;;;;;;15.68;4.93;;;;;;;7.73;100.00;100684.44;6250098;28;20049;-70
2022/12/21 12:04:58;;;;;;;12.15;5.05;;;;;;;7.71;100.00;100691.47;6250140;28;20068;-73
2022/12/21 12:08:04;;;;;;;16.02;6.00;;;;;;;7.74;100.00;100694.81;6250320;28;20060;-70
2022/12/21 12:11:21;;;;;;;13.52;5.75;;;;;;;7.67;100.00;100693.38;6250392;28;20618;-72
2022/12/21 12:14:41;;;;;;;14.80;5.60;;;;;;;7.65;100.00;100696.97;6250223;28;20045;-71
2022/12/21 12:17:57;;;;;;;12.02;5.85;;;;;;;7.57;100.00;100700.75;6249959;28;20064;-71
2022/12/21 12:21:31;;;;;;;19.70;6.07;;;;;;;7.62;100.00;100688.34;6250177;28;20053;-73
2022/12/21 12:25:03;;;;;;;16.00;6.68;;;;;;;7.63;100.00;100687.44;6247613;28;20061;-72
2022/12/21 12:28:26;;;;;;;14.80;5.25;;;;;;;7.68;100.00;100689.88;6247063;28;20056;-72
2022/12/21 12:31:36;;;;;;;17.45;5.85;;;;;;;7.65;100.00;100682.13;6249886;28;20057;-70
2022/12/21 12:34:53;;;;;;;;;;;;;;;7.66;100.00;100680.38;6248963;28;20485;-72
2022/12/21 12:38:08;;;;;;;15.50;5.53;;;;;;;7.74;100.00;100678.28;6249855;28;20391;-71
2022/12/21 12:41:25;;;;;;;13.70;4.63;;;;;;;7.69;100.00;100660.16;6249301;28;20052;-72
2022/12/21 12:44:39;;;;;;;9.35;4.53;;;;;;;7.68;100.00;100661.09;6249376;28;20049;-71
2022/12/21 12:47:51;;;;;;;15.90;5.15;;;;;;;7.72;100.00;100661.78;6249615;28;20060;-71
2022/12/21 12:51:02;;;;;;;14.63;5.30;;;;;;;7.73;100.00;100669.59;6248959;28;20057;-71
2022/12/21 12:54:11;;;;;;;13.57;6.10;;;;;;;7.67;100.00;100669.84;6249336;28;20057;-72
2022/12/21 12:57:20;;;;;;;24.38;8.25;;;;;;;7.68;100.00;100668.09;6249130;28;20501;-70
2022/12/21 13:00:23;;;;;;;;;;;;;;;7.68;100.00;100668.09;6249503;28;20056;-72
2022/12/21 13:03:43;;;;;;;14.98;5.30;;;;;;;7.69;100.00;100668.03;6248900;28;20285;-71
2022/12/21 13:06:52;;;;;;;17.27;5.70;;;;;;;7.65;100.00;100673.44;6248888;28;20061;-71
2022/12/21 13:10:03;;;;;;;22.83;6.60;;;;;;;7.55;100.00;100662.53;6248501;28;20053;-71
2022/12/21 13:13:12;;;;;;;22.08;6.53;;;;;;;7.55;100.00;100662.53;6248910;28;20053;-71
2022/12/21 13:16:24;;;;;;;12.82;5.43;;;;;;;7.58;100.00;100655.38;6248736;28;20049;-71
2022/12/21 13:19:29;;;;;;;13.18;4.88;;;;;;;7.62;100.00;100662.19;6247434;28;20054;-71
2022/12/21 13:22:36;;;;;;;14.95;5.60;;;;;;;7.62;100.00;100659.56;6244475;28;20417;-72
2022/12/21 13:25:43;;;;;;;14.45;6.22;;;;;;;7.61;100.00;100652.66;6248298;28;20077;-71
2022/12/21 13:28:52;;;;;;;12.63;5.40;;;;;;;7.59;100.00;100657.09;6240892;28;20049;-71
2022/12/21 13:32:01;;;;;;;14.73;5.30;;;;;;;7.59;100.00;100656.25;6248351;28;20409;-71
2022/12/21 13:35:07;;;;;;;16.77;5.85;;;;;;;7.55;100.00;100658.16;6248407;28;20049;-71
2022/12/21 13:38:12;;;;;;;17.30;5.97;;;;;;;7.55;100.00;100654.69;6248559;28;20045;-71
2022/12/21 13:41:18;;;;;;;13.27;5.43;;;;;;;7.55;100.00;100659.91;6248385;28;20045;-71
2022/12/21 13:44:29;;;;;;;19.40;7.22;;;;;;;7.55;100.00;100668.59;6247907;28;20053;-71
2022/12/21 13:47:36;;;;;;;16.25;5.75;;;;;;;7.54;100.00;100666.91;6247872;28;20140;-71
2022/12/21 13:50:42;;;;;;;20.23;7.63;;;;;;;7.58;100.00;100675.44;6247847;28;20045;-72
2022/12/21 13:53:49;;;;;;;17.80;6.70;;;;;;;7.53;100.00;100675.66;6248041;28;20045;-73
2022/12/21 13:57:00;;;;;;;16.33;7.45;;;;;;;7.55;100.00;100675.59;6247809;28;20049;-73
2022/12/21 14:00:11;;;;;;;13.65;5.60;;;;;;;7.55;100.00;100675.59;6247300;28;20060;-73
2022/12/21 14:03:23;;;;;;;23.20;6.93;;;;;;;7.57;100.00;100679.00;6247659;28;20397;-72
2022/12/21 14:06:55;;;;;;;18.17;7.80;;;;;;;7.53;100.00;100685.25;6241221;28;20045;-73
2022/12/21 14:10:12;;;;;;;12.52;5.18;;;;;;;7.53;100.00;100685.25;6243782;28;20052;-72
2022/12/21 14:13:37;;;;;;;16.77;6.30;;;;;;;7.47;100.00;100677.69;6246898;28;20041;-73
2022/12/21 14:16:39;;;;;;;28.17;6.45;;;;;;;7.47;100.00;100668.06;6246630;28;20515;-73
2022/12/21 14:19:51;;;;;;;18.98;6.15;;;;;;;7.43;100.00;100679.56;6247320;28;20053;-72
2022/12/21 14:22:53;;;;;;;15.13;6.28;;;;;;;7.43;100.00;100676.09;6247339;28;20532;-73
2022/12/21 14:25:56;;;;;;;13.10;5.82;;;;;;;7.47;100.00;100662.00;6247273;28;20053;-73
2022/12/21 14:29:02;;;;;;;22.77;6.63;;;;;;;7.44;100.00;100665.56;6246943;28;20136;-73
2022/12/21 14:32:15;;;;;;;13.13;6.28;;;;;;;7.43;100.00;100663.03;6246906;28;20509;-73